sensor_id;sensor_type;location;lat;lon;timestamp;P1;durP1;ratioP1;P2;durP2;ratioP2
23617;SDS011;18207;32.078;34.818;2023-09-19T00:01:20;1.70;;;1.60;;
23617;SDS011;18207;32.078;34.818;2023-09-19T00:03:51;1.50;;;1.40;;
23617;SDS011;18207;32.078;34.818;2023-09-19T00:06:20;2.08;;;1.60;;
23617;SDS011;18207;32.078;34.818;2023-09-19T00:08:52;1.70;;;1.60;;
23617;SDS011;18207;32.078;34.818;2023-09-19T00:11:24;1.60;;;1.50;;
23617;SDS011;18207;32.078;34.818;2023-09-19T00:13:54;1.25;;;1.10;;
23617;SDS011;18207;32.078;34.818;2023-09-19T00:16:26;1.40;;;1.30;;
23617;SDS011;18207;32.078;34.818;2023-09-19T00:18:55;1.52;;;1.42;;
23617;SDS011;18207;32.078;34.818;2023-09-19T00:21:26;1.40;;;1.27;;
23617;SDS011;18207;32.078;34.818;2023-09-19T00:23:55;1.40;;;1.30;;
23617;SDS011;18207;32.078;34.818;2023-09-19T00:26:27;1.55;;;1.45;;
23617;SDS011;18207;32.078;34.818;2023-09-19T00:28:57;1.42;;;1.33;;
23617;SDS011;18207;32.078;34.818;2023-09-19T00:31:31;1.02;;;0.95;;
23617;SDS011;18207;32.078;34.818;2023-09-19T00:34:01;1.48;;;1.38;;
23617;SDS011;18207;32.078;34.818;2023-09-19T00:36:37;1.40;;;1.30;;
23617;SDS011;18207;32.078;34.818;2023-09-19T00:39:06;1.27;;;1.17;;
23617;SDS011;18207;32.078;34.818;2023-09-19T00:41:39;1.60;;;1.40;;
23617;SDS011;18207;32.078;34.818;2023-09-19T00:44:11;1.30;;;1.20;;
23617;SDS011;18207;32.078;34.818;2023-09-19T00:46:42;1.33;;;1.23;;
23617;SDS011;18207;32.078;34.818;2023-09-19T00:49:14;1.58;;;1.48;;
23617;SDS011;18207;32.078;34.818;2023-09-19T00:51:44;1.52;;;1.42;;
23617;SDS011;18207;32.078;34.818;2023-09-19T00:54:14;1.67;;;1.30;;
23617;SDS011;18207;32.078;34.818;2023-09-19T00:56:47;1.30;;;1.20;;
23617;SDS011;18207;32.078;34.818;2023-09-19T00:59:17;1.30;;;1.20;;
23617;SDS011;18207;32.078;34.818;2023-09-19T01:01:49;1.58;;;1.48;;
23617;SDS011;18207;32.078;34.818;2023-09-19T01:04:21;1.70;;;1.60;;
23617;SDS011;18207;32.078;34.818;2023-09-19T01:06:51;2.08;;;1.50;;
23617;SDS011;18207;32.078;34.818;2023-09-19T01:09:22;1.48;;;1.38;;
23617;SDS011;18207;32.078;34.818;2023-09-19T01:11:57;1.70;;;1.45;;
23617;SDS011;18207;32.078;34.818;2023-09-19T01:14:34;1.73;;;1.50;;
23617;SDS011;18207;32.078;34.818;2023-09-19T01:17:22;1.60;;;1.50;;
23617;SDS011;18207;32.078;34.818;2023-09-19T01:20:10;1.98;;;1.42;;
23617;SDS011;18207;32.078;34.818;2023-09-19T01:23:00;1.52;;;1.42;;
23617;SDS011;18207;32.078;34.818;2023-09-19T01:28:56;1.83;;;1.70;;
23617;SDS011;18207;32.078;34.818;2023-09-19T01:31:59;1.58;;;1.48;;
23617;SDS011;18207;32.078;34.818;2023-09-19T01:34:45;1.67;;;1.52;;
23617;SDS011;18207;32.078;34.818;2023-09-19T01:37:17;1.70;;;1.60;;
23617;SDS011;18207;32.078;34.818;2023-09-19T01:39:52;2.58;;;1.95;;
23617;SDS011;18207;32.078;34.818;2023-09-19T01:42:36;1.92;;;1.80;;
23617;SDS011;18207;32.078;34.818;2023-09-19T01:45:12;1.80;;;1.70;;
23617;SDS011;18207;32.078;34.818;2023-09-19T01:47:54;2.00;;;1.80;;
23617;SDS011;18207;32.078;34.818;2023-09-19T01:50:34;1.77;;;1.67;;
23617;SDS011;18207;32.078;34.818;2023-09-19T01:53:15;1.85;;;1.67;;
23617;SDS011;18207;32.078;34.818;2023-09-19T01:55:55;1.95;;;1.75;;
23617;SDS011;18207;32.078;34.818;2023-09-19T01:58:30;1.70;;;1.60;;
23617;SDS011;18207;32.078;34.818;2023-09-19T02:01:10;1.95;;;1.80;;
23617;SDS011;18207;32.078;34.818;2023-09-19T02:03:49;1.67;;;1.58;;
23617;SDS011;18207;32.078;34.818;2023-09-19T02:06:20;2.03;;;1.83;;
23617;SDS011;18207;32.078;34.818;2023-09-19T02:08:52;1.85;;;1.73;;
23617;SDS011;18207;32.078;34.818;2023-09-19T02:11:23;1.77;;;1.67;;
23617;SDS011;18207;32.078;34.818;2023-09-19T02:13:52;2.13;;;1.92;;
23617;SDS011;18207;32.078;34.818;2023-09-19T02:16:22;1.85;;;1.75;;
23617;SDS011;18207;32.078;34.818;2023-09-19T02:18:54;1.60;;;1.50;;
23617;SDS011;18207;32.078;34.818;2023-09-19T02:21:23;1.65;;;1.55;;
23617;SDS011;18207;32.078;34.818;2023-09-19T02:23:56;1.80;;;1.70;;
23617;SDS011;18207;32.078;34.818;2023-09-19T02:26:25;1.85;;;1.75;;
23617;SDS011;18207;32.078;34.818;2023-09-19T02:28:55;2.08;;;1.88;;
23617;SDS011;18207;32.078;34.818;2023-09-19T02:31:26;2.00;;;1.90;;
23617;SDS011;18207;32.078;34.818;2023-09-19T02:33:58;1.98;;;1.77;;
23617;SDS011;18207;32.078;34.818;2023-09-19T02:36:28;1.98;;;1.80;;
23617;SDS011;18207;32.078;34.818;2023-09-19T02:38:57;1.95;;;1.80;;
23617;SDS011;18207;32.078;34.818;2023-09-19T02:41:27;1.70;;;1.60;;
23617;SDS011;18207;32.078;34.818;2023-09-19T02:43:57;2.17;;;1.70;;
23617;SDS011;18207;32.078;34.818;2023-09-19T02:46:28;1.92;;;1.80;;
23617;SDS011;18207;32.078;34.818;2023-09-19T02:48:59;1.80;;;1.70;;
23617;SDS011;18207;32.078;34.818;2023-09-19T02:51:32;2.08;;;1.85;;
23617;SDS011;18207;32.078;34.818;2023-09-19T02:54:01;2.00;;;1.70;;
23617;SDS011;18207;32.078;34.818;2023-09-19T02:56:31;2.05;;;1.83;;
23617;SDS011;18207;32.078;34.818;2023-09-19T02:59:02;1.95;;;1.58;;
23617;SDS011;18207;32.078;34.818;2023-09-19T03:01:32;1.60;;;1.50;;
23617;SDS011;18207;32.078;34.818;2023-09-19T03:04:05;2.00;;;1.80;;
23617;SDS011;18207;32.078;34.818;2023-09-19T03:06:35;2.10;;;1.90;;
23617;SDS011;18207;32.078;34.818;2023-09-19T03:09:05;2.13;;;1.92;;
23617;SDS011;18207;32.078;34.818;2023-09-19T03:11:39;1.73;;;1.63;;
23617;SDS011;18207;32.078;34.818;2023-09-19T03:14:08;1.65;;;1.55;;
23617;SDS011;18207;32.078;34.818;2023-09-19T03:16:39;1.75;;;1.65;;
23617;SDS011;18207;32.078;34.818;2023-09-19T03:19:11;1.90;;;1.48;;
23617;SDS011;18207;32.078;34.818;2023-09-19T03:21:42;1.80;;;1.70;;
23617;SDS011;18207;32.078;34.818;2023-09-19T03:24:11;1.70;;;1.60;;
23617;SDS011;18207;32.078;34.818;2023-09-19T03:26:41;1.75;;;1.58;;
23617;SDS011;18207;32.078;34.818;2023-09-19T03:29:12;1.75;;;1.65;;
23617;SDS011;18207;32.078;34.818;2023-09-19T03:31:42;1.60;;;1.50;;
23617;SDS011;18207;32.078;34.818;2023-09-19T03:34:14;1.60;;;1.50;;
23617;SDS011;18207;32.078;34.818;2023-09-19T03:36:44;1.70;;;1.60;;
23617;SDS011;18207;32.078;34.818;2023-09-19T03:39:13;1.70;;;1.60;;
23617;SDS011;18207;32.078;34.818;2023-09-19T03:41:43;2.00;;;1.90;;
23617;SDS011;18207;32.078;34.818;2023-09-19T03:44:12;1.63;;;1.52;;
23617;SDS011;18207;32.078;34.818;2023-09-19T03:46:42;1.45;;;1.30;;
23617;SDS011;18207;32.078;34.818;2023-09-19T03:49:11;1.70;;;1.55;;
23617;SDS011;18207;32.078;34.818;2023-09-19T03:51:43;1.70;;;1.60;;
23617;SDS011;18207;32.078;34.818;2023-09-19T03:54:13;1.70;;;1.60;;
23617;SDS011;18207;32.078;34.818;2023-09-19T03:56:56;1.90;;;1.70;;
23617;SDS011;18207;32.078;34.818;2023-09-19T03:59:26;2.00;;;1.80;;
23617;SDS011;18207;32.078;34.818;2023-09-19T04:01:56;2.00;;;1.80;;
23617;SDS011;18207;32.078;34.818;2023-09-19T04:04:28;1.70;;;1.60;;
23617;SDS011;18207;32.078;34.818;2023-09-19T04:06:57;1.80;;;1.60;;
23617;SDS011;18207;32.078;34.818;2023-09-19T04:09:27;1.88;;;1.77;;
23617;SDS011;18207;32.078;34.818;2023-09-19T04:11:57;1.73;;;1.63;;
23617;SDS011;18207;32.078;34.818;2023-09-19T04:14:26;2.38;;;2.10;;
23617;SDS011;18207;32.078;34.818;2023-09-19T04:16:56;1.80;;;1.70;;
23617;SDS011;18207;32.078;34.818;2023-09-19T04:19:25;1.70;;;1.60;;
23617;SDS011;18207;32.078;34.818;2023-09-19T04:21:57;2.53;;;1.70;;
23617;SDS011;18207;32.078;34.818;2023-09-19T04:24:26;1.80;;;1.70;;
23617;SDS011;18207;32.078;34.818;2023-09-19T04:26:56;1.75;;;1.60;;
23617;SDS011;18207;32.078;34.818;2023-09-19T04:29:26;1.60;;;1.50;;
23617;SDS011;18207;32.078;34.818;2023-09-19T04:31:56;1.90;;;1.58;;
23617;SDS011;18207;32.078;34.818;2023-09-19T04:34:25;2.05;;;1.75;;
23617;SDS011;18207;32.078;34.818;2023-09-19T04:36:57;1.80;;;1.60;;
23617;SDS011;18207;32.078;34.818;2023-09-19T04:39:27;2.00;;;1.80;;
23617;SDS011;18207;32.078;34.818;2023-09-19T04:41:58;1.98;;;1.77;;
23617;SDS011;18207;32.078;34.818;2023-09-19T04:44:27;1.98;;;1.77;;
23617;SDS011;18207;32.078;34.818;2023-09-19T04:46:57;1.63;;;1.52;;
23617;SDS011;18207;32.078;34.818;2023-09-19T04:49:29;1.65;;;1.55;;
23617;SDS011;18207;32.078;34.818;2023-09-19T04:51:59;2.05;;;1.90;;
23617;SDS011;18207;32.078;34.818;2023-09-19T04:54:28;2.08;;;1.38;;
23617;SDS011;18207;32.078;34.818;2023-09-19T04:56:58;1.85;;;1.50;;
23617;SDS011;18207;32.078;34.818;2023-09-19T04:59:28;1.70;;;1.60;;
23617;SDS011;18207;32.078;34.818;2023-09-19T05:01:58;1.77;;;1.48;;
23617;SDS011;18207;32.078;34.818;2023-09-19T05:04:29;2.45;;;1.60;;
23617;SDS011;18207;32.078;34.818;2023-09-19T05:06:59;1.73;;;1.63;;
23617;SDS011;18207;32.078;34.818;2023-09-19T05:09:30;2.17;;;1.80;;
23617;SDS011;18207;32.078;34.818;2023-09-19T05:12:01;1.73;;;1.40;;
23617;SDS011;18207;32.078;34.818;2023-09-19T05:14:31;1.70;;;1.60;;
23617;SDS011;18207;32.078;34.818;2023-09-19T05:17:02;1.55;;;1.45;;
23617;SDS011;18207;32.078;34.818;2023-09-19T05:19:34;1.80;;;1.67;;
23617;SDS011;18207;32.078;34.818;2023-09-19T05:22:05;2.17;;;1.50;;
23617;SDS011;18207;32.078;34.818;2023-09-19T05:24:34;2.15;;;1.50;;
23617;SDS011;18207;32.078;34.818;2023-09-19T05:27:06;2.05;;;1.67;;
23617;SDS011;18207;32.078;34.818;2023-09-19T05:29:35;1.50;;;1.40;;
23617;SDS011;18207;32.078;34.818;2023-09-19T05:32:05;1.90;;;1.70;;
23617;SDS011;18207;32.078;34.818;2023-09-19T05:34:37;1.55;;;1.45;;
23617;SDS011;18207;32.078;34.818;2023-09-19T05:37:07;1.50;;;1.40;;
23617;SDS011;18207;32.078;34.818;2023-09-19T05:39:36;1.60;;;1.50;;
23617;SDS011;18207;32.078;34.818;2023-09-19T05:42:06;1.48;;;1.25;;
23617;SDS011;18207;32.078;34.818;2023-09-19T05:44:36;1.42;;;1.33;;
23617;SDS011;18207;32.078;34.818;2023-09-19T05:47:06;1.35;;;1.25;;
23617;SDS011;18207;32.078;34.818;2023-09-19T05:49:37;1.38;;;1.27;;
23617;SDS011;18207;32.078;34.818;2023-09-19T05:52:07;1.52;;;1.42;;
23617;SDS011;18207;32.078;34.818;2023-09-19T05:54:37;1.88;;;1.52;;
23617;SDS011;18207;32.078;34.818;2023-09-19T05:57:07;1.80;;;1.70;;
23617;SDS011;18207;32.078;34.818;2023-09-19T05:59:39;1.63;;;1.52;;
23617;SDS011;18207;32.078;34.818;2023-09-19T06:02:09;1.55;;;1.45;;
23617;SDS011;18207;32.078;34.818;2023-09-19T06:04:41;1.63;;;1.20;;
23617;SDS011;18207;32.078;34.818;2023-09-19T06:07:11;2.88;;;1.58;;
23617;SDS011;18207;32.078;34.818;2023-09-19T06:09:42;1.50;;;1.35;;
23617;SDS011;18207;32.078;34.818;2023-09-19T06:12:11;1.65;;;1.48;;
23617;SDS011;18207;32.078;34.818;2023-09-19T06:14:44;1.50;;;1.40;;
23617;SDS011;18207;32.078;34.818;2023-09-19T06:17:13;1.45;;;1.35;;
23617;SDS011;18207;32.078;34.818;2023-09-19T06:19:45;1.67;;;1.58;;
23617;SDS011;18207;32.078;34.818;2023-09-19T06:22:17;1.50;;;1.40;;
23617;SDS011;18207;32.078;34.818;2023-09-19T06:24:47;1.38;;;1.27;;
23617;SDS011;18207;32.078;34.818;2023-09-19T06:27:17;1.60;;;1.50;;
23617;SDS011;18207;32.078;34.818;2023-09-19T06:29:46;1.50;;;1.40;;
23617;SDS011;18207;32.078;34.818;2023-09-19T06:32:16;1.73;;;1.27;;
23617;SDS011;18207;32.078;34.818;2023-09-19T06:34:51;1.17;;;1.17;;
23617;SDS011;18207;32.078;34.818;2023-09-19T06:37:21;1.58;;;1.45;;
23617;SDS011;18207;32.078;34.818;2023-09-19T06:39:55;1.30;;;1.20;;
23617;SDS011;18207;32.078;34.818;2023-09-19T06:42:25;1.20;;;1.10;;
23617;SDS011;18207;32.078;34.818;2023-09-19T06:44:55;1.40;;;1.30;;
23617;SDS011;18207;32.078;34.818;2023-09-19T06:47:24;1.67;;;1.52;;
23617;SDS011;18207;32.078;34.818;2023-09-19T06:49:55;1.38;;;1.20;;
23617;SDS011;18207;32.078;34.818;2023-09-19T06:52:25;1.50;;;1.40;;
23617;SDS011;18207;32.078;34.818;2023-09-19T06:54:55;1.50;;;1.40;;
23617;SDS011;18207;32.078;34.818;2023-09-19T06:57:25;1.52;;;1.42;;
23617;SDS011;18207;32.078;34.818;2023-09-19T06:59:54;1.30;;;1.27;;
23617;SDS011;18207;32.078;34.818;2023-09-19T07:02:24;1.13;;;1.10;;
23617;SDS011;18207;32.078;34.818;2023-09-19T07:04:55;1.48;;;1.38;;
23617;SDS011;18207;32.078;34.818;2023-09-19T07:07:25;1.10;;;1.10;;
23617;SDS011;18207;32.078;34.818;2023-09-19T07:09:55;1.70;;;1.05;;
23617;SDS011;18207;32.078;34.818;2023-09-19T07:12:24;1.10;;;1.10;;
23617;SDS011;18207;32.078;34.818;2023-09-19T07:14:54;1.27;;;1.20;;
23617;SDS011;18207;32.078;34.818;2023-09-19T07:17:24;1.15;;;1.15;;
23617;SDS011;18207;32.078;34.818;2023-09-19T07:19:56;1.40;;;1.30;;
23617;SDS011;18207;32.078;34.818;2023-09-19T07:22:26;1.45;;;0.90;;
23617;SDS011;18207;32.078;34.818;2023-09-19T07:24:55;1.20;;;1.10;;
23617;SDS011;18207;32.078;34.818;2023-09-19T07:27:25;1.00;;;1.00;;
23617;SDS011;18207;32.078;34.818;2023-09-19T07:29:54;0.93;;;0.93;;
23617;SDS011;18207;32.078;34.818;2023-09-19T07:32:25;1.02;;;0.95;;
23617;SDS011;18207;32.078;34.818;2023-09-19T07:34:57;1.45;;;1.35;;
23617;SDS011;18207;32.078;34.818;2023-09-19T07:37:26;1.20;;;1.13;;
23617;SDS011;18207;32.078;34.818;2023-09-19T07:39:58;1.20;;;1.10;;
23617;SDS011;18207;32.078;34.818;2023-09-19T07:42:27;1.25;;;1.05;;
23617;SDS011;18207;32.078;34.818;2023-09-19T07:44:57;1.05;;;1.05;;
23617;SDS011;18207;32.078;34.818;2023-09-19T07:47:27;1.10;;;1.10;;
23617;SDS011;18207;32.078;34.818;2023-09-19T07:49:59;1.00;;;1.00;;
23617;SDS011;18207;32.078;34.818;2023-09-19T07:52:29;1.05;;;1.02;;
23617;SDS011;18207;32.078;34.818;2023-09-19T07:55:00;1.10;;;1.10;;
23617;SDS011;18207;32.078;34.818;2023-09-19T07:57:35;1.35;;;1.25;;
23617;SDS011;18207;32.078;34.818;2023-09-19T08:00:08;1.02;;;1.02;;
23617;SDS011;18207;32.078;34.818;2023-09-19T08:02:39;1.20;;;1.20;;
23617;SDS011;18207;32.078;34.818;2023-09-19T08:05:12;0.95;;;0.95;;
23617;SDS011;18207;32.078;34.818;2023-09-19T08:07:44;1.25;;;1.20;;
23617;SDS011;18207;32.078;34.818;2023-09-19T08:10:15;1.00;;;1.00;;
23617;SDS011;18207;32.078;34.818;2023-09-19T08:12:46;1.00;;;1.00;;
23617;SDS011;18207;32.078;34.818;2023-09-19T08:15:22;1.23;;;1.13;;
23617;SDS011;18207;32.078;34.818;2023-09-19T08:17:55;1.70;;;1.23;;
23617;SDS011;18207;32.078;34.818;2023-09-19T08:20:27;0.90;;;0.90;;
23617;SDS011;18207;32.078;34.818;2023-09-19T08:22:56;0.80;;;0.80;;
23617;SDS011;18207;32.078;34.818;2023-09-19T08:25:26;1.05;;;1.05;;
23617;SDS011;18207;32.078;34.818;2023-09-19T08:27:56;0.88;;;0.88;;
23617;SDS011;18207;32.078;34.818;2023-09-19T08:30:26;0.95;;;0.95;;
23617;SDS011;18207;32.078;34.818;2023-09-19T08:32:57;1.02;;;1.02;;
23617;SDS011;18207;32.078;34.818;2023-09-19T08:35:29;1.10;;;1.10;;
23617;SDS011;18207;32.078;34.818;2023-09-19T08:37:58;0.95;;;0.95;;
23617;SDS011;18207;32.078;34.818;2023-09-19T08:40:31;1.00;;;1.00;;
23617;SDS011;18207;32.078;34.818;2023-09-19T08:43:01;0.90;;;0.85;;
23617;SDS011;18207;32.078;34.818;2023-09-19T08:45:31;0.90;;;0.90;;
23617;SDS011;18207;32.078;34.818;2023-09-19T08:48:04;1.10;;;1.10;;
23617;SDS011;18207;32.078;34.818;2023-09-19T08:50:51;0.95;;;0.95;;
23617;SDS011;18207;32.078;34.818;2023-09-19T08:53:30;0.80;;;0.80;;
23617;SDS011;18207;32.078;34.818;2023-09-19T08:56:13;1.33;;;1.15;;
23617;SDS011;18207;32.078;34.818;2023-09-19T08:58:48;1.08;;;1.00;;
23617;SDS011;18207;32.078;34.818;2023-09-19T09:01:22;0.90;;;0.90;;
23617;SDS011;18207;32.078;34.818;2023-09-19T09:03:52;0.95;;;0.95;;
23617;SDS011;18207;32.078;34.818;2023-09-19T09:06:25;0.80;;;0.80;;
23617;SDS011;18207;32.078;34.818;2023-09-19T09:08:57;1.10;;;1.08;;
23617;SDS011;18207;32.078;34.818;2023-09-19T09:11:27;0.98;;;0.98;;
23617;SDS011;18207;32.078;34.818;2023-09-19T09:13:57;1.20;;;1.20;;
23617;SDS011;18207;32.078;34.818;2023-09-19T09:16:26;1.30;;;1.20;;
23617;SDS011;18207;32.078;34.818;2023-09-19T09:19:12;0.73;;;0.73;;
23617;SDS011;18207;32.078;34.818;2023-09-19T09:21:49;0.98;;;0.98;;
23617;SDS011;18207;32.078;34.818;2023-09-19T09:24:28;1.08;;;0.80;;
23617;SDS011;18207;32.078;34.818;2023-09-19T09:27:02;1.02;;;1.02;;
23617;SDS011;18207;32.078;34.818;2023-09-19T09:29:43;0.93;;;0.93;;
23617;SDS011;18207;32.078;34.818;2023-09-19T09:32:16;0.85;;;0.85;;
23617;SDS011;18207;32.078;34.818;2023-09-19T09:34:48;1.00;;;1.00;;
23617;SDS011;18207;32.078;34.818;2023-09-19T09:37:23;1.13;;;1.02;;
23617;SDS011;18207;32.078;34.818;2023-09-19T09:39:55;1.10;;;1.10;;
23617;SDS011;18207;32.078;34.818;2023-09-19T09:42:46;1.00;;;1.00;;
23617;SDS011;18207;32.078;34.818;2023-09-19T09:45:19;0.95;;;0.95;;
23617;SDS011;18207;32.078;34.818;2023-09-19T09:48:04;1.08;;;1.08;;
23617;SDS011;18207;32.078;34.818;2023-09-19T09:50:46;1.17;;;1.15;;
23617;SDS011;18207;32.078;34.818;2023-09-19T09:53:25;1.10;;;1.00;;
23617;SDS011;18207;32.078;34.818;2023-09-19T09:56:02;1.10;;;1.00;;
23617;SDS011;18207;32.078;34.818;2023-09-19T09:58:34;1.08;;;0.98;;
23617;SDS011;18207;32.078;34.818;2023-09-19T10:01:07;1.23;;;1.13;;
23617;SDS011;18207;32.078;34.818;2023-09-19T10:03:37;1.30;;;1.30;;
23617;SDS011;18207;32.078;34.818;2023-09-19T10:06:11;0.98;;;0.98;;
23617;SDS011;18207;32.078;34.818;2023-09-19T10:08:59;1.33;;;1.20;;
23617;SDS011;18207;32.078;34.818;2023-09-19T10:11:42;1.30;;;1.20;;
23617;SDS011;18207;32.078;34.818;2023-09-19T10:14:13;1.27;;;1.13;;
23617;SDS011;18207;32.078;34.818;2023-09-19T10:16:47;1.17;;;1.08;;
23617;SDS011;18207;32.078;34.818;2023-09-19T10:19:20;1.33;;;1.08;;
23617;SDS011;18207;32.078;34.818;2023-09-19T10:22:00;0.93;;;0.93;;
23617;SDS011;18207;32.078;34.818;2023-09-19T10:24:37;0.90;;;0.90;;
23617;SDS011;18207;32.078;34.818;2023-09-19T10:27:27;1.25;;;1.10;;
23617;SDS011;18207;32.078;34.818;2023-09-19T10:30:05;1.00;;;1.00;;
23617;SDS011;18207;32.078;34.818;2023-09-19T10:32:36;1.17;;;1.08;;
23617;SDS011;18207;32.078;34.818;2023-09-19T10:35:11;0.90;;;0.90;;
23617;SDS011;18207;32.078;34.818;2023-09-19T10:37:43;1.00;;;1.00;;
23617;SDS011;18207;32.078;34.818;2023-09-19T10:40:20;0.98;;;0.90;;
23617;SDS011;18207;32.078;34.818;2023-09-19T10:43:01;1.05;;;1.00;;
23617;SDS011;18207;32.078;34.818;2023-09-19T10:45:33;1.00;;;1.00;;
23617;SDS011;18207;32.078;34.818;2023-09-19T10:48:05;1.10;;;1.05;;
23617;SDS011;18207;32.078;34.818;2023-09-19T10:50:36;1.00;;;1.00;;
23617;SDS011;18207;32.078;34.818;2023-09-19T10:53:16;1.13;;;0.93;;
23617;SDS011;18207;32.078;34.818;2023-09-19T10:55:53;0.93;;;0.93;;
23617;SDS011;18207;32.078;34.818;2023-09-19T10:58:28;0.90;;;0.90;;
23617;SDS011;18207;32.078;34.818;2023-09-19T11:01:04;0.90;;;0.90;;
23617;SDS011;18207;32.078;34.818;2023-09-19T11:03:44;1.02;;;0.90;;
23617;SDS011;18207;32.078;34.818;2023-09-19T11:06:19;0.85;;;0.85;;
23617;SDS011;18207;32.078;34.818;2023-09-19T11:08:52;1.42;;;1.33;;
23617;SDS011;18207;32.078;34.818;2023-09-19T11:11:52;0.80;;;0.80;;
23617;SDS011;18207;32.078;34.818;2023-09-19T11:20:24;3.15;;;2.85;;
23617;SDS011;18207;32.078;34.818;2023-09-19T11:25:59;7.68;;;6.50;;
23617;SDS011;18207;32.078;34.818;2023-09-19T11:28:31;5.72;;;5.03;;
23617;SDS011;18207;32.078;34.818;2023-09-19T11:34:37;4.28;;;3.88;;
23617;SDS011;18207;32.078;34.818;2023-09-19T11:41:05;2.90;;;2.70;;
23617;SDS011;18207;32.078;34.818;2023-09-19T11:47:05;2.83;;;2.63;;
23617;SDS011;18207;32.078;34.818;2023-09-19T11:49:36;3.00;;;2.75;;
23617;SDS011;18207;32.078;34.818;2023-09-19T11:52:09;2.90;;;2.60;;
23617;SDS011;18207;32.078;34.818;2023-09-19T11:54:54;3.03;;;2.20;;
23617;SDS011;18207;32.078;34.818;2023-09-19T11:57:25;2.30;;;2.10;;
23617;SDS011;18207;32.078;34.818;2023-09-19T11:59:59;2.17;;;1.90;;
23617;SDS011;18207;32.078;34.818;2023-09-19T12:02:38;1.80;;;1.70;;
23617;SDS011;18207;32.078;34.818;2023-09-19T12:05:15;1.88;;;1.77;;
23617;SDS011;18207;32.078;34.818;2023-09-19T12:07:45;1.67;;;1.58;;
23617;SDS011;18207;32.078;34.818;2023-09-19T12:10:15;1.73;;;1.63;;
23617;SDS011;18207;32.078;34.818;2023-09-19T12:12:48;1.70;;;1.60;;
23617;SDS011;18207;32.078;34.818;2023-09-19T12:15:25;1.13;;;1.13;;
23617;SDS011;18207;32.078;34.818;2023-09-19T12:18:01;1.55;;;1.45;;
23617;SDS011;18207;32.078;34.818;2023-09-19T12:23:19;1.30;;;1.20;;
23617;SDS011;18207;32.078;34.818;2023-09-19T12:25:49;1.23;;;1.13;;
23617;SDS011;18207;32.078;34.818;2023-09-19T12:28:20;0.90;;;0.90;;
23617;SDS011;18207;32.078;34.818;2023-09-19T12:30:55;1.17;;;1.17;;
23617;SDS011;18207;32.078;34.818;2023-09-19T12:33:24;1.20;;;1.15;;
23617;SDS011;18207;32.078;34.818;2023-09-19T12:35:55;1.13;;;1.13;;
23617;SDS011;18207;32.078;34.818;2023-09-19T12:38:26;1.10;;;1.10;;
23617;SDS011;18207;32.078;34.818;2023-09-19T12:41:02;1.20;;;1.10;;
23617;SDS011;18207;32.078;34.818;2023-09-19T12:43:34;1.20;;;1.20;;
23617;SDS011;18207;32.078;34.818;2023-09-19T12:46:09;1.25;;;1.08;;
23617;SDS011;18207;32.078;34.818;2023-09-19T12:48:47;1.10;;;1.10;;
23617;SDS011;18207;32.078;34.818;2023-09-19T12:51:34;1.08;;;0.95;;
23617;SDS011;18207;32.078;34.818;2023-09-19T12:54:04;1.25;;;1.15;;
23617;SDS011;18207;32.078;34.818;2023-09-19T12:56:39;1.08;;;0.98;;
23617;SDS011;18207;32.078;34.818;2023-09-19T12:59:12;1.15;;;1.13;;
23617;SDS011;18207;32.078;34.818;2023-09-19T13:01:44;1.30;;;1.20;;
23617;SDS011;18207;32.078;34.818;2023-09-19T13:04:17;1.30;;;1.20;;
23617;SDS011;18207;32.078;34.818;2023-09-19T13:06:53;1.10;;;1.10;;
23617;SDS011;18207;32.078;34.818;2023-09-19T13:09:28;1.27;;;1.20;;
23617;SDS011;18207;32.078;34.818;2023-09-19T13:12:02;0.98;;;0.88;;
23617;SDS011;18207;32.078;34.818;2023-09-19T13:14:34;1.30;;;1.20;;
23617;SDS011;18207;32.078;34.818;2023-09-19T13:17:09;1.02;;;1.02;;
23617;SDS011;18207;32.078;34.818;2023-09-19T13:19:44;0.98;;;0.98;;
23617;SDS011;18207;32.078;34.818;2023-09-19T13:22:39;1.15;;;1.13;;
23617;SDS011;18207;32.078;34.818;2023-09-19T13:25:13;1.02;;;1.02;;
23617;SDS011;18207;32.078;34.818;2023-09-19T13:27:46;1.08;;;1.05;;
23617;SDS011;18207;32.078;34.818;2023-09-19T13:30:18;1.02;;;1.02;;
23617;SDS011;18207;32.078;34.818;2023-09-19T13:32:51;1.20;;;1.10;;
23617;SDS011;18207;32.078;34.818;2023-09-19T13:35:32;0.93;;;0.93;;
23617;SDS011;18207;32.078;34.818;2023-09-19T13:38:03;1.38;;;1.27;;
23617;SDS011;18207;32.078;34.818;2023-09-19T13:40:35;1.20;;;1.20;;
23617;SDS011;18207;32.078;34.818;2023-09-19T13:43:06;1.05;;;1.05;;
23617;SDS011;18207;32.078;34.818;2023-09-19T13:45:36;0.98;;;0.98;;
23617;SDS011;18207;32.078;34.818;2023-09-19T13:48:10;1.10;;;1.10;;
23617;SDS011;18207;32.078;34.818;2023-09-19T13:50:40;1.13;;;1.13;;
23617;SDS011;18207;32.078;34.818;2023-09-19T13:53:10;1.35;;;1.25;;
23617;SDS011;18207;32.078;34.818;2023-09-19T13:55:39;1.23;;;1.20;;
23617;SDS011;18207;32.078;34.818;2023-09-19T13:58:09;1.10;;;1.10;;
23617;SDS011;18207;32.078;34.818;2023-09-19T14:00:39;1.02;;;1.02;;
23617;SDS011;18207;32.078;34.818;2023-09-19T14:03:11;1.23;;;1.13;;
23617;SDS011;18207;32.078;34.818;2023-09-19T14:05:41;1.20;;;1.10;;
23617;SDS011;18207;32.078;34.818;2023-09-19T14:08:11;1.35;;;1.25;;
23617;SDS011;18207;32.078;34.818;2023-09-19T14:10:41;1.35;;;1.25;;
23617;SDS011;18207;32.078;34.818;2023-09-19T14:13:10;1.17;;;1.10;;
23617;SDS011;18207;32.078;34.818;2023-09-19T14:15:44;1.00;;;1.00;;
23617;SDS011;18207;32.078;34.818;2023-09-19T14:18:15;1.10;;;1.10;;
23617;SDS011;18207;32.078;34.818;2023-09-19T14:20:45;1.25;;;1.20;;
23617;SDS011;18207;32.078;34.818;2023-09-19T14:23:15;1.33;;;1.23;;
23617;SDS011;18207;32.078;34.818;2023-09-19T14:25:44;1.15;;;1.08;;
23617;SDS011;18207;32.078;34.818;2023-09-19T14:28:14;1.05;;;1.05;;
23617;SDS011;18207;32.078;34.818;2023-09-19T14:30:45;1.20;;;1.10;;
23617;SDS011;18207;32.078;34.818;2023-09-19T14:33:17;1.42;;;1.23;;
23617;SDS011;18207;32.078;34.818;2023-09-19T14:35:47;1.35;;;1.25;;
23617;SDS011;18207;32.078;34.818;2023-09-19T14:38:16;1.30;;;1.20;;
23617;SDS011;18207;32.078;34.818;2023-09-19T14:40:46;0.93;;;0.93;;
23617;SDS011;18207;32.078;34.818;2023-09-19T14:43:17;1.48;;;1.30;;
23617;SDS011;18207;32.078;34.818;2023-09-19T14:45:46;1.20;;;1.10;;
23617;SDS011;18207;32.078;34.818;2023-09-19T14:48:18;1.05;;;1.05;;
23617;SDS011;18207;32.078;34.818;2023-09-19T14:50:49;0.95;;;0.95;;
23617;SDS011;18207;32.078;34.818;2023-09-19T14:53:19;0.90;;;0.90;;
23617;SDS011;18207;32.078;34.818;2023-09-19T14:55:49;1.25;;;1.05;;
23617;SDS011;18207;32.078;34.818;2023-09-19T14:58:18;0.95;;;0.95;;
23617;SDS011;18207;32.078;34.818;2023-09-19T15:00:48;1.10;;;1.10;;
23617;SDS011;18207;32.078;34.818;2023-09-19T15:03:21;1.83;;;1.25;;
23617;SDS011;18207;32.078;34.818;2023-09-19T15:05:58;0.95;;;0.90;;
23617;SDS011;18207;32.078;34.818;2023-09-19T15:08:28;1.20;;;1.10;;
23617;SDS011;18207;32.078;34.818;2023-09-19T15:10:58;1.13;;;1.02;;
23617;SDS011;18207;32.078;34.818;2023-09-19T15:13:30;1.38;;;1.27;;
23617;SDS011;18207;32.078;34.818;2023-09-19T15:16:01;0.80;;;0.77;;
23617;SDS011;18207;32.078;34.818;2023-09-19T15:18:33;1.23;;;1.13;;
23617;SDS011;18207;32.078;34.818;2023-09-19T15:21:04;1.45;;;1.30;;
23617;SDS011;18207;32.078;34.818;2023-09-19T15:23:36;1.60;;;1.27;;
23617;SDS011;18207;32.078;34.818;2023-09-19T15:26:08;1.23;;;1.13;;
23617;SDS011;18207;32.078;34.818;2023-09-19T15:28:41;1.08;;;1.08;;
23617;SDS011;18207;32.078;34.818;2023-09-19T15:31:11;1.20;;;1.10;;